Home   Weather   Luxembourg   Luxembourg   Past weeks
Flag for Luxembourg

Past Weather in Luxembourg, Luxembourg — Yesterday and Last 2 Weeks

Currently: 30 °F. Clear. (Weather station: Luxembourg Airport, Luxembourg). See more current weather

Past Weather in Luxembourg — Graph

°F

Luxembourg Temperature Yesterday

Maximum temperature yesterday: 41 °F (at 2:20 pm)
Minimum temperature yesterday: 30 °F (at 11:50 pm)
Average temperature yesterday: 36 °F

High & Low Weather Summary for the Past Weeks

 TemperatureHumidityPressure
High46 °F (Feb 4, 4:20 am)100% (Jan 24, 4:50 pm)30.69 "Hg (Jan 24, 4:50 pm)
Low21 °F (Jan 26, 7:20 am)45% (Feb 7, 3:50 pm)30.09 "Hg (Jan 27, 1:50 am)
Average36 °F88%30.38 "Hg
* Reported Jan 23 10:20 pm — Feb 7 10:20 pm, Luxembourg. Weather by CustomWeather, © 2023

Note: Actual official high and low records may vary slightly from our data, if they occured in-between our weather recording intervals... More about our weather records

Luxembourg Weather History for the Previous 24 Hours

Scroll right to see more
 ConditionsComfort  
Time TempWeatherWind HumidityBarometerVisibility
10:20 pm
Tue, Feb 7
28 °FClear.10 mph64%30.63 "Hg10 mi
9:50 pm28 °FClear.9 mph64%30.60 "Hg10 mi
9:20 pm28 °FClear.9 mph59%30.63 "Hg10 mi
8:50 pm28 °FClear.9 mph59%30.63 "Hg10 mi
8:20 pm30 °FClear.8 mph55%30.63 "Hg10 mi
7:50 pm32 °FClear.8 mph51%30.63 "Hg10 mi
7:20 pm32 °FClear.10 mph55%30.63 "Hg10 mi
6:50 pm32 °FClear.7 mph55%30.63 "Hg10 mi
6:20 pm34 °FClear.9 mph56%30.63 "Hg10 mi
5:50 pm34 °FClear.9 mph56%30.60 "Hg10 mi
5:20 pm36 °FSunny.9 mph52%30.60 "Hg10 mi
4:50 pm37 °FSunny.9 mph52%30.60 "Hg10 mi
4:20 pm39 °FSunny.9 mph45%30.60 "Hg10 mi
3:50 pm39 °FSunny.9 mph45%30.60 "Hg10 mi
3:20 pm39 °FPassing clouds.8 mph48%30.60 "HgN/A
2:50 pm39 °FSunny.10 mph52%30.60 "Hg10 mi
2:20 pm37 °FSunny.13 mph52%30.60 "Hg10 mi
1:50 pm37 °FPassing clouds.12 mph56%30.60 "HgN/A
1:20 pm37 °FPassing clouds.10 mph56%30.60 "HgN/A
12:50 pm36 °FPassing clouds.8 mph56%30.60 "HgN/A
12:20 pm34 °FSunny.12 mph60%30.60 "Hg10 mi
11:50 am34 °FSunny.10 mph65%30.60 "Hg10 mi
11:20 am32 °FSunny.16 mph69%30.63 "Hg10 mi
10:50 am32 °FSunny.16 mph69%30.60 "Hg10 mi
10:20 am30 °FSunny.16 mph75%30.60 "Hg10 mi
9:50 am30 °FSunny.17 mph75%30.60 "Hg10 mi
9:20 am28 °FSunny.16 mph80%30.60 "Hg10 mi
8:50 am28 °FSunny.15 mph80%30.60 "Hg10 mi
8:20 am27 °FSunny.13 mph86%30.60 "Hg10 mi
7:50 am27 °FClear.13 mph86%30.57 "Hg10 mi
6:50 am28 °FClear.13 mph86%30.57 "Hg10 mi
6:20 am27 °FClear.8 mph86%30.57 "Hg10 mi
5:50 am27 °FClear.10 mph93%30.57 "Hg10 mi
5:20 am28 °FClear.10 mph86%30.57 "Hg10 mi
4:50 am27 °FClear.13 mph93%30.57 "Hg10 mi
4:20 am28 °FClear.13 mph86%30.57 "Hg10 mi
3:50 am28 °FClear.14 mph86%30.57 "Hg10 mi
3:20 am28 °FChilly.13 mph86%30.57 "HgN/A
2:50 am30 °FChilly.10 mph86%30.60 "HgN/A
2:20 am30 °FPassing clouds.10 mph86%30.60 "HgN/A
1:50 am30 °FPassing clouds.12 mph86%30.57 "HgN/A
12:20 am32 °FClear.12 mph87%30.57 "Hg10 mi
11:50 pm
Mon, Feb 6
30 °FPassing clouds.12 mph93%30.57 "HgN/A
11:20 pm32 °FPassing clouds.12 mph87%30.60 "HgN/A
Weather by CustomWeather, © 2023

See weather overview